Fernando Acosta

Chefscout - Sarmiento
8 Okt 2026
Donnerstag
Verarbeitung

Persönlichkeit

Anpassungsfähigkeit (16) Ehrgeiz (8) Kontroverse (6) Loyalität (13) Druck (6) Professionalität (12) Fairness (4) Temperament (18)

Profil

Trainerstil Demokratisch
Lizenz Kontinentale B
Entschlossenheit 10
Menschenführung 11
Motivation 10
Disziplin 5
Arbeitszufriedenheit
63%
Ermüdung
0%
Rolle Chefscout
Gehalt 59.3K p/W
Vertrag 14.03.2029

Leistung

Verhalten Gut
Trainingseffektivität
26%
Spielerentwicklung
20%
Verletzungsprävention
60%
Taktische Umsetzung
40%

Letzte Ereignisse

Spieler begutachtet jetzt
Spieler begutachtet jetzt
Spieler begutachtet 7T her
Spieler begutachtet 7T her
Spieler begutachtet 7T her
Spieler begutachtet 7T her
Spieler begutachtet 7T her
Spieler begutachtet 7T her

Aktuell beobachtet

100
Spieler Verein Status Fähigkeit Vertrauen Beobachtet Zuletzt beobachtet Letzte Stimme
Santiago Silva CFR Cluj Aktiv 126 / 110 40% 6 06.10.2026 -
Dayne St. Clair Inter Miami CF Aktiv 124 / 129 40% 1 06.10.2026 -
James Pantemis Portland Timbers Aktiv 125 / 118 40% 1 06.10.2026 -
Rodrigo Morínigo Libertad Aktiv 113 / 119 40% 2 05.10.2026 -
Nicolás Sumavil Platense Aktiv 121 / 120 40% 3 05.10.2026 -
Christian Krasnodar Aktiv 143 / 143 40% 2 05.10.2026 -
Federico Bonansea San Martín SJ Aktiv 98 / 112 40% 1 05.10.2026 -
Siro Rosané Estudiantes Aktiv 121 / 119 40% 1 05.10.2026 -
Harvey Vale Queens Park Rangers Aktiv 113 / 118 40% 1 05.10.2026 -
Joaquín Bigo Tristán Suárez Aktiv 101 / 113 40% 1 03.10.2026 -
Esteban Glellel Quilmes Aktiv 113 / 121 40% 1 03.10.2026 -
Sipho Chaine Orlando Pirates Aktiv 114 / 107 40% 1 03.10.2026 -
Ralph Orquin Seattle Sounders Aktiv 129 / 127 40% 2 02.10.2026 -
Felipe Zenobio Tigre Aktiv 128 / 128 40% 1 02.10.2026 -
Lautaro Petruchi Gimnasia y Esgrima Aktiv 106 / 108 40% 1 02.10.2026 -
Alexis Cuello San Lorenzo Aktiv 128 / 128 40% 1 02.10.2026 -
Vicente Poggi Godoy Cruz Aktiv 124 / 125 40% 1 02.10.2026 -
Alonso Martínez New York City Aktiv 126 / 129 40% 1 01.10.2026 -
José Paradela Cruz Azul Aktiv 135 / 148 40% 1 01.10.2026 -
Bryan Ramírez FC Cincinnati Aktiv 118 / 126 40% 1 01.10.2026 -
Lucas Bruera Carabobo Aktiv 121 / 117 40% 3 30.09.2026 -
Viktor Johansson Stoke City Aktiv 133 / 140 40% 1 30.09.2026 -
Patrick Schulte Columbus Crew Aktiv 128 / 126 40% 1 30.09.2026 -
Tomás Silva Platense Aktiv 129 / 124 40% 1 30.09.2026 -
Aarón Quiros Vélez Aktiv 119 / 122 40% 1 30.09.2026 -
Chris Brady Chicago Fire Aktiv 138 / 134 40% 4 27.09.2026 -
Manuel Roffo Cerro Porteno Aktiv 131 / 126 40% 3 27.09.2026 -
CJ dos Santos San Diego Football Club Aktiv 105 / 102 40% 1 27.09.2026 -
Fernando Martínez Central Córdoba SdE Aktiv 125 / 109 40% 1 26.09.2026 -
Lukas Engel Real Salt Lake Aktiv 122 / 127 40% 1 26.09.2026 -
Nahuel Pezzini Arsenal Aktiv 116 / 110 40% 1 26.09.2026 -
Diego Romero Universitario Aktiv 115 / 120 40% 3 25.09.2026 -
Sebastián Meza Huracán Aktiv 124 / 131 40% 3 25.09.2026 -
Roman Celentano FC Cincinnati Aktiv 110 / 115 40% 1 25.09.2026 -
Juan Pablo Cisternas Antofagasta Aktiv 93 / 85 40% 2 24.09.2026 -
JT Marcinkowski LA Galaxy Aktiv 116 / 110 40% 1 24.09.2026 -
Santino Barbi Talleres Aktiv 117 / 123 40% 1 24.09.2026 -
Gonzalo Falcón Cienciano Aktiv 118 / 118 40% 3 23.09.2026 -
Lukáš Horníček Newcastle United Aktiv 146 / 133 40% 2 23.09.2026 -
Javier Altamirano Universidad de Chile Aktiv 123 / 121 40% 1 23.09.2026 -
Tomás O'Connor Gimnasia y Esgrima Aktiv 125 / 122 40% 1 23.09.2026 -
Caio Vidal Ludogorets Aktiv 122 / 131 40% 1 23.09.2026 -
Jesús Garza Tigres Aktiv 126 / 119 40% 1 21.09.2026 -
Haissem Hassan Bloemfontein Celtic Aktiv 139 / 144 40% 1 21.09.2026 -
Ignacio Schor O'Higgins Aktiv 118 / 116 40% 1 21.09.2026 -
Erik Lira Cruz Azul Aktiv 134 / 131 40% 1 20.09.2026 -
Tomás Alarcón Colo-Colo Aktiv 117 / 121 40% 1 20.09.2026 -
Griffin Yow New England Revolution Aktiv 116 / 117 40% 1 20.09.2026 -
Andrés Gudiño Cruz Azul Aktiv 122 / 120 40% 4 18.09.2026 -
Nicolás Campisi Sportivo Luqueno Aktiv 126 / 122 40% 2 18.09.2026 -
Joaquín Silva Plaza Colonia Aktiv 103 / 105 40% 2 16.09.2026 -
Agustín Buffa Wanderers Aktiv 98 / 105 40% 1 16.09.2026 -
Sebastián Jaume Albion Aktiv 90 / 100 40% 1 16.09.2026 -
Alejandro Rodríguez Deportivo Cali Aktiv 116 / 127 40% 3 15.09.2026 -
José Hernández Queretaro Aktiv 109 / 113 40% 2 15.09.2026 -
Bruno Antúnez Boston River Aktiv 105 / 107 40% 2 15.09.2026 -
Franco Carretero Deportivo Lara Aktiv 99 / 92 40% 1 14.09.2026 -
Beycker Velásquez Zamora Aktiv 107 / 95 40% 3 13.09.2026 -
Julian Zapata Cortulua Aktiv 121 / 129 40% 3 12.09.2026 -
Enzo Vázquez Central Norte Aktiv 107 / 101 40% 1 12.09.2026 -
Ángel Maciel Tacuarembo Aktiv 105 / 109 40% 2 11.09.2026 -
Ander Astralaga Barcelona Aktiv 131 / 132 40% 3 10.09.2026 -
Adalberto Carrasquilla Pumas UNAM Aktiv 134 / 123 40% 1 09.09.2026 -
Pablo Monroy Pumas UNAM Aktiv 116 / 125 40% 1 09.09.2026 -
James Cardona La Equidad Aktiv 148 / 143 40% 1 09.09.2026 -
Juan Moreno Pachuca Aktiv 116 / 120 40% 1 07.09.2026 -
Emi Ochoa Cruz Azul Aktiv 105 / 111 40% 2 06.09.2026 -
Manuel Rios La Equidad Aktiv 98 / 101 40% 1 06.09.2026 -
Toni Fuidias Girona Aktiv 105 / 108 40% 1 05.09.2026 -
Héctor Holguín Veracruz Aktiv 100 / 115 40% 1 05.09.2026 -
Andrés Samurio Tacuarembo Aktiv 100 / 105 40% 1 05.09.2026 -
Tomás Sultani Atletico Nacional Aktiv 110 / 118 40% 1 03.09.2026 -
Jorge Cabezudo Melgar Aktiv 106 / 116 40% 1 03.09.2026 -
Zacarías López Iquique Aktiv 93 / 93 40% 2 02.09.2026 -
Drake Callender Minnesota United FC Aktiv 129 / 116 40% 1 02.09.2026 -
Erick Reyes Toluca Aktiv 142 / 150 40% 2 30.08.2026 -
Weibmar Asprilla Independiente Medellin Aktiv 108 / 114 40% 1 30.08.2026 -
Miguel Silva Carabobo Aktiv 112 / 100 40% 2 28.08.2026 -
Emiliano González Almagro Aktiv 122 / 115 40% 1 28.08.2026 -
Egoitz Arana Real Sociedad Aktiv 92 / 101 40% 1 27.08.2026 -
Sebastián Guerra Barranquilla Aktiv 95 / 90 40% 1 27.08.2026 -
Víctor Cabezas Union Magdalena Aktiv 120 / 112 40% 1 25.08.2026 -
Fernando Tapia Club America Aktiv 122 / 115 40% 1 21.08.2026 -
Matt Freese New York City Aktiv 136 / 116 40% 1 20.08.2026 -
Cristopher Varela Deportivo La Guaira Aktiv 116 / 111 40% 1 20.08.2026 -
Manuel Tasso New York City Aktiv 103 / 103 40% 1 18.08.2026 -
Jorge Hernández Tijuana Aktiv 123 / 111 40% 1 16.08.2026 -
Lucas Verza Olimpia Aktiv 106 / 115 40% 1 12.08.2026 -
Kevin Cataño Atletico Nacional Aktiv 102 / 107 40% 1 12.08.2026 -
Randall Rodríguez River Plate Aktiv 108 / 117 40% 1 12.08.2026 -
Moisés Gallo Zulia Aktiv 103 / 95 40% 1 11.08.2026 -
Juan Diego Jaramillo Depor Aktiv 102 / 100 40% 1 11.08.2026 -
Renato Solís Sporting Cristal Aktiv 114 / 116 40% 1 07.08.2026 -
Aldo Pérez Guarani Aktiv 104 / 103 40% 1 07.08.2026 -
Pablo Lara Pumas UNAM Aktiv 99 / 104 40% 1 05.08.2026 -
Carlos Moreno Pachuca Aktiv 124 / 141 40% 1 05.08.2026 -
Zion Suzuki Aston Villa Aktiv 143 / 127 40% 1 02.08.2026 -
Iker Álvarez Córdoba Aktiv 114 / 115 40% 1 02.08.2026 -
Guilherme Fernandes Córdoba Aktiv 133 / 115 40% 1 01.08.2026 -
Luca Zidane Leganés Aktiv 128 / 128 40% 1 01.08.2026 -